sensor_id;sensor_type;location;lat;lon;timestamp;temperature;humidity
29687;DHT22;16599;47.078;15.536;2022-09-03T01:33:37;11.10;99.90
29687;DHT22;16599;47.078;15.536;2022-09-03T02:15:06;10.70;99.90
29687;DHT22;16599;47.078;15.536;2022-09-03T02:55:45;10.50;99.90
29687;DHT22;16599;47.078;15.536;2022-09-03T02:58:40;10.40;99.90
29687;DHT22;16599;47.078;15.536;2022-09-03T03:08:19;10.40;99.90
29687;DHT22;16599;47.078;15.536;2022-09-03T03:14:45;10.20;99.90
29687;DHT22;16599;47.078;15.536;2022-09-03T03:21:13;10.40;99.90
29687;DHT22;16599;47.078;15.536;2022-09-03T03:23:41;10.30;99.90
29687;DHT22;16599;47.078;15.536;2022-09-03T03:26:11;10.20;99.90
29687;DHT22;16599;47.078;15.536;2022-09-03T03:28:39;10.00;99.90
29687;DHT22;16599;47.078;15.536;2022-09-03T03:34:54;10.00;99.90
29687;DHT22;16599;47.078;15.536;2022-09-03T03:37:21;10.20;99.90
29687;DHT22;16599;47.078;15.536;2022-09-03T03:39:48;10.30;99.90
29687;DHT22;16599;47.078;15.536;2022-09-03T03:42:15;10.30;99.90
29687;DHT22;16599;47.078;15.536;2022-09-03T03:44:42;10.30;99.90
29687;DHT22;16599;47.078;15.536;2022-09-03T03:47:09;10.30;99.90
29687;DHT22;16599;47.078;15.536;2022-09-03T03:56:42;10.10;99.90
29687;DHT22;16599;47.078;15.536;2022-09-03T03:59:12;10.10;99.90
29687;DHT22;16599;47.078;15.536;2022-09-03T04:01:39;10.20;99.90
29687;DHT22;16599;47.078;15.536;2022-09-03T04:04:06;10.20;99.90
29687;DHT22;16599;47.078;15.536;2022-09-03T04:06:33;10.20;99.90
29687;DHT22;16599;47.078;15.536;2022-09-03T04:09:00;10.40;99.90
29687;DHT22;16599;47.078;15.536;2022-09-03T04:12:03;10.50;99.90
29687;DHT22;16599;47.078;15.536;2022-09-03T04:14:34;10.50;99.90
29687;DHT22;16599;47.078;15.536;2022-09-03T04:20:23;10.00;99.90
29687;DHT22;16599;47.078;15.536;2022-09-03T04:22:50;9.80;99.90
29687;DHT22;16599;47.078;15.536;2022-09-03T04:25:17;9.90;99.90
29687;DHT22;16599;47.078;15.536;2022-09-03T04:27:44;10.10;99.90
29687;DHT22;16599;47.078;15.536;2022-09-03T04:30:11;10.30;99.90
29687;DHT22;16599;47.078;15.536;2022-09-03T04:40:19;10.50;99.90
29687;DHT22;16599;47.078;15.536;2022-09-03T04:46:34;10.40;99.90
29687;DHT22;16599;47.078;15.536;2022-09-03T04:52:50;10.30;99.90
29687;DHT22;16599;47.078;15.536;2022-09-03T04:55:18;10.50;99.90
29687;DHT22;16599;47.078;15.536;2022-09-03T04:57:47;10.60;99.90
29687;DHT22;16599;47.078;15.536;2022-09-03T05:00:14;10.50;99.90
29687;DHT22;16599;47.078;15.536;2022-09-03T05:02:44;10.60;99.90
29687;DHT22;16599;47.078;15.536;2022-09-03T05:05:40;10.60;99.90
29687;DHT22;16599;47.078;15.536;2022-09-03T05:12:01;10.80;99.90
29687;DHT22;16599;47.078;15.536;2022-09-03T05:22:02;11.10;99.90
29687;DHT22;16599;47.078;15.536;2022-09-03T05:28:16;11.30;99.90
29687;DHT22;16599;47.078;15.536;2022-09-03T05:30:43;11.40;99.90
29687;DHT22;16599;47.078;15.536;2022-09-03T05:33:10;11.50;99.90
29687;DHT22;16599;47.078;15.536;2022-09-03T05:35:38;11.60;99.90
29687;DHT22;16599;47.078;15.536;2022-09-03T05:38:06;11.60;99.90
29687;DHT22;16599;47.078;15.536;2022-09-03T05:40:35;11.60;99.90
29687;DHT22;16599;47.078;15.536;2022-09-03T05:43:02;11.70;99.90
29687;DHT22;16599;47.078;15.536;2022-09-03T05:45:34;11.80;99.90
29687;DHT22;16599;47.078;15.536;2022-09-03T05:48:02;11.80;99.90
29687;DHT22;16599;47.078;15.536;2022-09-03T05:50:29;11.90;99.90
29687;DHT22;16599;47.078;15.536;2022-09-03T05:52:57;11.90;99.90
29687;DHT22;16599;47.078;15.536;2022-09-03T05:55:24;11.90;99.90
29687;DHT22;16599;47.078;15.536;2022-09-03T05:57:51;11.90;99.90
29687;DHT22;16599;47.078;15.536;2022-09-03T06:00:21;11.90;99.90
29687;DHT22;16599;47.078;15.536;2022-09-03T06:02:52;12.00;99.90
29687;DHT22;16599;47.078;15.536;2022-09-03T06:05:20;12.10;99.90
29687;DHT22;16599;47.078;15.536;2022-09-03T06:07:47;12.20;99.90
29687;DHT22;16599;47.078;15.536;2022-09-03T06:10:15;12.30;99.90
29687;DHT22;16599;47.078;15.536;2022-09-03T06:13:05;12.40;99.90
29687;DHT22;16599;47.078;15.536;2022-09-03T06:15:32;12.50;99.90
29687;DHT22;16599;47.078;15.536;2022-09-03T06:17:59;12.60;99.90
29687;DHT22;16599;47.078;15.536;2022-09-03T06:20:27;12.70;99.90
29687;DHT22;16599;47.078;15.536;2022-09-03T06:22:55;12.80;99.90
29687;DHT22;16599;47.078;15.536;2022-09-03T06:25:22;12.90;99.90
29687;DHT22;16599;47.078;15.536;2022-09-03T06:27:49;12.90;99.90
29687;DHT22;16599;47.078;15.536;2022-09-03T06:30:16;13.00;99.90
29687;DHT22;16599;47.078;15.536;2022-09-03T06:32:44;13.10;99.90
29687;DHT22;16599;47.078;15.536;2022-09-03T06:35:15;13.30;99.90
29687;DHT22;16599;47.078;15.536;2022-09-03T06:37:42;13.40;99.90
29687;DHT22;16599;47.078;15.536;2022-09-03T06:40:09;13.50;99.90
29687;DHT22;16599;47.078;15.536;2022-09-03T06:42:39;13.60;99.90
29687;DHT22;16599;47.078;15.536;2022-09-03T06:45:12;13.70;99.90
29687;DHT22;16599;47.078;15.536;2022-09-03T06:47:39;13.80;99.90
29687;DHT22;16599;47.078;15.536;2022-09-03T06:50:06;13.90;99.90
29687;DHT22;16599;47.078;15.536;2022-09-03T06:52:33;14.10;99.90
29687;DHT22;16599;47.078;15.536;2022-09-03T06:59:05;14.30;99.90
29687;DHT22;16599;47.078;15.536;2022-09-03T07:01:33;14.40;99.90
29687;DHT22;16599;47.078;15.536;2022-09-03T07:04:03;14.60;99.90
29687;DHT22;16599;47.078;15.536;2022-09-03T07:06:33;14.70;99.90
29687;DHT22;16599;47.078;15.536;2022-09-03T07:09:03;14.80;99.90
29687;DHT22;16599;47.078;15.536;2022-09-03T07:11:31;14.90;99.90
29687;DHT22;16599;47.078;15.536;2022-09-03T07:13:59;15.00;99.90
29687;DHT22;16599;47.078;15.536;2022-09-03T07:16:28;15.20;99.90
29687;DHT22;16599;47.078;15.536;2022-09-03T07:18:55;15.40;99.90
29687;DHT22;16599;47.078;15.536;2022-09-03T07:21:27;15.50;99.90
29687;DHT22;16599;47.078;15.536;2022-09-03T07:23:55;15.70;99.90
29687;DHT22;16599;47.078;15.536;2022-09-03T07:26:25;15.90;99.90
29687;DHT22;16599;47.078;15.536;2022-09-03T07:28:52;16.10;99.90
29687;DHT22;16599;47.078;15.536;2022-09-03T07:31:22;16.40;99.90
29687;DHT22;16599;47.078;15.536;2022-09-03T07:33:55;16.40;99.90
29687;DHT22;16599;47.078;15.536;2022-09-03T07:36:23;16.30;99.90
29687;DHT22;16599;47.078;15.536;2022-09-03T07:38:54;16.40;99.90
29687;DHT22;16599;47.078;15.536;2022-09-03T07:41:22;16.70;99.90
29687;DHT22;16599;47.078;15.536;2022-09-03T07:43:55;17.00;99.90
29687;DHT22;16599;47.078;15.536;2022-09-03T07:50:04;17.00;99.90
29687;DHT22;16599;47.078;15.536;2022-09-03T07:52:31;16.90;99.90
29687;DHT22;16599;47.078;15.536;2022-09-03T07:54:59;17.00;99.90
29687;DHT22;16599;47.078;15.536;2022-09-03T07:57:31;17.00;99.90
29687;DHT22;16599;47.078;15.536;2022-09-03T07:59:57;17.10;99.90
29687;DHT22;16599;47.078;15.536;2022-09-03T08:02:24;17.40;99.90
29687;DHT22;16599;47.078;15.536;2022-09-03T08:04:51;17.50;99.90
29687;DHT22;16599;47.078;15.536;2022-09-03T08:07:18;17.40;99.90
29687;DHT22;16599;47.078;15.536;2022-09-03T08:09:45;17.40;99.90
29687;DHT22;16599;47.078;15.536;2022-09-03T08:12:12;17.50;99.90
29687;DHT22;16599;47.078;15.536;2022-09-03T08:14:38;17.60;99.90
29687;DHT22;16599;47.078;15.536;2022-09-03T08:17:05;17.60;99.90
29687;DHT22;16599;47.078;15.536;2022-09-03T08:19:33;17.60;99.90
29687;DHT22;16599;47.078;15.536;2022-09-03T08:22:00;17.70;99.90
29687;DHT22;16599;47.078;15.536;2022-09-03T08:24:27;17.90;99.90
29687;DHT22;16599;47.078;15.536;2022-09-03T08:26:54;17.90;99.90
29687;DHT22;16599;47.078;15.536;2022-09-03T08:29:21;17.90;99.90
29687;DHT22;16599;47.078;15.536;2022-09-03T08:31:48;18.10;99.90
29687;DHT22;16599;47.078;15.536;2022-09-03T08:34:16;18.30;99.90
29687;DHT22;16599;47.078;15.536;2022-09-03T08:36:44;18.30;99.90
29687;DHT22;16599;47.078;15.536;2022-09-03T08:39:32;18.60;99.90
29687;DHT22;16599;47.078;15.536;2022-09-03T08:45:06;18.10;99.90
29687;DHT22;16599;47.078;15.536;2022-09-03T08:48:04;18.30;99.90
29687;DHT22;16599;47.078;15.536;2022-09-03T08:54:24;18.60;99.90
29687;DHT22;16599;47.078;15.536;2022-09-03T09:22:25;19.00;99.90
29687;DHT22;16599;47.078;15.536;2022-09-03T09:24:55;19.10;99.90
29687;DHT22;16599;47.078;15.536;2022-09-03T09:38:13;19.60;99.90
29687;DHT22;16599;47.078;15.536;2022-09-03T09:40:43;19.80;99.90
29687;DHT22;16599;47.078;15.536;2022-09-03T09:43:18;20.00;99.90
29687;DHT22;16599;47.078;15.536;2022-09-03T09:45:50;19.90;99.90
29687;DHT22;16599;47.078;15.536;2022-09-03T09:51:11;20.10;99.90
29687;DHT22;16599;47.078;15.536;2022-09-03T09:53:39;20.20;99.90
29687;DHT22;16599;47.078;15.536;2022-09-03T09:56:07;20.00;99.90
29687;DHT22;16599;47.078;15.536;2022-09-03T09:58:34;19.90;99.90
29687;DHT22;16599;47.078;15.536;2022-09-03T10:01:03;20.10;99.90
29687;DHT22;16599;47.078;15.536;2022-09-03T10:03:47;20.10;99.90
29687;DHT22;16599;47.078;15.536;2022-09-03T10:06:15;20.30;99.90
29687;DHT22;16599;47.078;15.536;2022-09-03T10:09:13;20.50;99.90
29687;DHT22;16599;47.078;15.536;2022-09-03T10:11:47;20.50;99.90
29687;DHT22;16599;47.078;15.536;2022-09-03T10:14:52;20.70;99.90
29687;DHT22;16599;47.078;15.536;2022-09-03T10:18:14;20.40;99.20
29687;DHT22;16599;47.078;15.536;2022-09-03T10:20:26;20.20;99.90
29687;DHT22;16599;47.078;15.536;2022-09-03T10:23:26;20.60;99.90
29687;DHT22;16599;47.078;15.536;2022-09-03T10:26:06;20.60;99.90
29687;DHT22;16599;47.078;15.536;2022-09-03T10:28:37;20.50;99.90
29687;DHT22;16599;47.078;15.536;2022-09-03T10:34:21;20.00;99.90
29687;DHT22;16599;47.078;15.536;2022-09-03T10:37:13;20.00;99.90
29687;DHT22;16599;47.078;15.536;2022-09-03T10:50:51;21.20;99.90
29687;DHT22;16599;47.078;15.536;2022-09-03T10:53:23;21.20;98.70
29687;DHT22;16599;47.078;15.536;2022-09-03T11:08:16;21.10;97.50
29687;DHT22;16599;47.078;15.536;2022-09-03T11:14:07;21.10;98.30
29687;DHT22;16599;47.078;15.536;2022-09-03T11:23:48;21.70;97.10
29687;DHT22;16599;47.078;15.536;2022-09-03T11:26:23;21.80;96.40
29687;DHT22;16599;47.078;15.536;2022-09-03T11:29:03;21.70;94.50
29687;DHT22;16599;47.078;15.536;2022-09-03T11:45:00;21.60;96.30
29687;DHT22;16599;47.078;15.536;2022-09-03T11:52:30;22.20;94.10
29687;DHT22;16599;47.078;15.536;2022-09-03T11:58:46;22.30;96.10
29687;DHT22;16599;47.078;15.536;2022-09-03T12:25:24;22.80;92.70
29687;DHT22;16599;47.078;15.536;2022-09-03T12:27:52;22.40;93.40
29687;DHT22;16599;47.078;15.536;2022-09-03T12:34:11;22.70;93.90
29687;DHT22;16599;47.078;15.536;2022-09-03T12:36:46;22.90;92.30
29687;DHT22;16599;47.078;15.536;2022-09-03T12:39:22;22.80;93.30
29687;DHT22;16599;47.078;15.536;2022-09-03T12:42:17;23.00;92.50
29687;DHT22;16599;47.078;15.536;2022-09-03T12:44:46;22.90;91.90
29687;DHT22;16599;47.078;15.536;2022-09-03T12:47:18;22.30;93.90
29687;DHT22;16599;47.078;15.536;2022-09-03T12:53:56;22.40;92.70
29687;DHT22;16599;47.078;15.536;2022-09-03T13:04:20;23.10;92.70
29687;DHT22;16599;47.078;15.536;2022-09-03T13:47:47;23.00;91.50
29687;DHT22;16599;47.078;15.536;2022-09-03T13:51:06;22.90;93.30
29687;DHT22;16599;47.078;15.536;2022-09-03T13:53:48;23.10;93.10
29687;DHT22;16599;47.078;15.536;2022-09-03T14:01:43;23.50;91.30
29687;DHT22;16599;47.078;15.536;2022-09-03T14:32:04;22.80;92.70
29687;DHT22;16599;47.078;15.536;2022-09-03T14:40:43;22.80;92.60
29687;DHT22;16599;47.078;15.536;2022-09-03T14:43:37;22.70;92.40
29687;DHT22;16599;47.078;15.536;2022-09-03T14:54:30;22.80;93.60
29687;DHT22;16599;47.078;15.536;2022-09-03T15:09:27;22.10;91.80
29687;DHT22;16599;47.078;15.536;2022-09-03T15:12:39;21.90;93.10
29687;DHT22;16599;47.078;15.536;2022-09-03T15:15:12;22.00;92.70
29687;DHT22;16599;47.078;15.536;2022-09-03T15:26:17;22.00;92.50
29687;DHT22;16599;47.078;15.536;2022-09-03T15:29:11;22.00;94.00
29687;DHT22;16599;47.078;15.536;2022-09-03T15:36:57;21.80;93.20
29687;DHT22;16599;47.078;15.536;2022-09-03T15:39:33;21.90;93.30
29687;DHT22;16599;47.078;15.536;2022-09-03T15:42:09;21.90;93.40
29687;DHT22;16599;47.078;15.536;2022-09-03T15:44:44;21.90;93.70
29687;DHT22;16599;47.078;15.536;2022-09-03T15:47:36;21.90;93.70
29687;DHT22;16599;47.078;15.536;2022-09-03T15:55:39;21.60;94.10
29687;DHT22;16599;47.078;15.536;2022-09-03T15:58:27;21.50;94.10
29687;DHT22;16599;47.078;15.536;2022-09-03T16:01:03;21.40;93.80
29687;DHT22;16599;47.078;15.536;2022-09-03T16:06:17;21.40;97.10
29687;DHT22;16599;47.078;15.536;2022-09-03T16:08:53;21.20;98.30
29687;DHT22;16599;47.078;15.536;2022-09-03T16:11:39;21.10;95.00
29687;DHT22;16599;47.078;15.536;2022-09-03T16:14:40;21.10;97.60
29687;DHT22;16599;47.078;15.536;2022-09-03T16:19:53;20.80;97.00
29687;DHT22;16599;47.078;15.536;2022-09-03T16:22:28;20.90;97.90
29687;DHT22;16599;47.078;15.536;2022-09-03T16:25:07;20.80;98.70
29687;DHT22;16599;47.078;15.536;2022-09-03T16:27:54;20.60;99.40
29687;DHT22;16599;47.078;15.536;2022-09-03T16:33:15;20.40;99.10
29687;DHT22;16599;47.078;15.536;2022-09-03T16:39:47;20.20;99.30
29687;DHT22;16599;47.078;15.536;2022-09-03T16:48:12;19.90;99.90
29687;DHT22;16599;47.078;15.536;2022-09-03T16:57:13;19.70;99.90
29687;DHT22;16599;47.078;15.536;2022-09-03T17:00:13;19.60;99.90
29687;DHT22;16599;47.078;15.536;2022-09-03T17:03:02;19.60;99.90
29687;DHT22;16599;47.078;15.536;2022-09-03T17:11:47;19.30;99.90
29687;DHT22;16599;47.078;15.536;2022-09-03T17:14:37;19.20;99.90
29687;DHT22;16599;47.078;15.536;2022-09-03T17:24:54;18.80;99.90
29687;DHT22;16599;47.078;15.536;2022-09-03T17:27:49;18.60;99.90
29687;DHT22;16599;47.078;15.536;2022-09-03T17:33:10;18.50;99.90
29687;DHT22;16599;47.078;15.536;2022-09-03T17:41:54;18.20;99.90
29687;DHT22;16599;47.078;15.536;2022-09-03T17:48:02;18.30;99.90
29687;DHT22;16599;47.078;15.536;2022-09-03T18:04:56;18.20;99.90
29687;DHT22;16599;47.078;15.536;2022-09-03T18:07:56;17.90;99.90
29687;DHT22;16599;47.078;15.536;2022-09-03T18:10:43;17.70;99.90
29687;DHT22;16599;47.078;15.536;2022-09-03T18:16:25;17.60;99.90
29687;DHT22;16599;47.078;15.536;2022-09-03T18:19:05;17.60;99.90
29687;DHT22;16599;47.078;15.536;2022-09-03T18:21:36;17.60;99.90
29687;DHT22;16599;47.078;15.536;2022-09-03T18:24:32;17.70;99.90
29687;DHT22;16599;47.078;15.536;2022-09-03T18:27:38;17.60;99.90
29687;DHT22;16599;47.078;15.536;2022-09-03T18:30:24;17.50;99.90
29687;DHT22;16599;47.078;15.536;2022-09-03T18:33:12;17.40;99.90
29687;DHT22;16599;47.078;15.536;2022-09-03T18:35:58;17.30;99.90
29687;DHT22;16599;47.078;15.536;2022-09-03T18:38:43;17.30;99.90
29687;DHT22;16599;47.078;15.536;2022-09-03T18:48:08;17.00;99.90
29687;DHT22;16599;47.078;15.536;2022-09-03T18:54:15;17.10;99.90
29687;DHT22;16599;47.078;15.536;2022-09-03T18:57:25;17.00;99.90
29687;DHT22;16599;47.078;15.536;2022-09-03T19:00:15;16.80;99.90
29687;DHT22;16599;47.078;15.536;2022-09-03T19:06:25;16.70;99.90
29687;DHT22;16599;47.078;15.536;2022-09-03T19:16:05;16.60;99.90
29687;DHT22;16599;47.078;15.536;2022-09-03T19:22:38;16.60;99.90
29687;DHT22;16599;47.078;15.536;2022-09-03T19:25:26;16.80;99.90
29687;DHT22;16599;47.078;15.536;2022-09-03T19:34:02;16.40;99.90
29687;DHT22;16599;47.078;15.536;2022-09-03T19:52:29;15.80;99.90
29687;DHT22;16599;47.078;15.536;2022-09-03T19:55:20;16.00;99.90
29687;DHT22;16599;47.078;15.536;2022-09-03T19:58:09;15.90;99.90
29687;DHT22;16599;47.078;15.536;2022-09-03T20:01:09;15.80;99.90
29687;DHT22;16599;47.078;15.536;2022-09-03T20:03:58;15.50;99.90
29687;DHT22;16599;47.078;15.536;2022-09-03T20:06:44;15.40;99.90
29687;DHT22;16599;47.078;15.536;2022-09-03T20:09:33;15.60;99.90
29687;DHT22;16599;47.078;15.536;2022-09-03T20:12:21;15.70;99.90
29687;DHT22;16599;47.078;15.536;2022-09-03T20:14:49;15.60;99.90
29687;DHT22;16599;47.078;15.536;2022-09-03T20:22:46;15.80;99.90
29687;DHT22;16599;47.078;15.536;2022-09-03T20:28:21;15.50;99.90
29687;DHT22;16599;47.078;15.536;2022-09-03T20:36:24;15.60;99.90
29687;DHT22;16599;47.078;15.536;2022-09-03T20:39:10;15.50;99.90
29687;DHT22;16599;47.078;15.536;2022-09-03T20:48:26;15.10;99.90
29687;DHT22;16599;47.078;15.536;2022-09-03T20:51:24;15.30;99.90
29687;DHT22;16599;47.078;15.536;2022-09-03T20:56:58;15.20;99.90
29687;DHT22;16599;47.078;15.536;2022-09-03T21:13:38;15.40;99.90
29687;DHT22;16599;47.078;15.536;2022-09-03T21:25:14;15.50;99.90
29687;DHT22;16599;47.078;15.536;2022-09-03T21:27:47;15.50;99.90
29687;DHT22;16599;47.078;15.536;2022-09-03T21:30:17;15.50;99.90
29687;DHT22;16599;47.078;15.536;2022-09-03T21:35:31;15.50;99.90
29687;DHT22;16599;47.078;15.536;2022-09-03T21:38:06;15.50;99.90
29687;DHT22;16599;47.078;15.536;2022-09-03T21:40:37;15.60;99.90
29687;DHT22;16599;47.078;15.536;2022-09-03T21:43:16;15.60;99.90
29687;DHT22;16599;47.078;15.536;2022-09-03T21:46:07;15.60;99.90
29687;DHT22;16599;47.078;15.536;2022-09-03T21:48:37;15.60;99.90
29687;DHT22;16599;47.078;15.536;2022-09-03T21:51:10;15.60;99.90
29687;DHT22;16599;47.078;15.536;2022-09-03T21:53:52;15.60;99.90
29687;DHT22;16599;47.078;15.536;2022-09-03T22:02:30;15.60;99.90
29687;DHT22;16599;47.078;15.536;2022-09-03T22:05:01;15.60;99.90
29687;DHT22;16599;47.078;15.536;2022-09-03T22:15:56;15.70;99.90
29687;DHT22;16599;47.078;15.536;2022-09-03T22:18:26;15.60;99.90
29687;DHT22;16599;47.078;15.536;2022-09-03T22:23:42;15.70;99.90
29687;DHT22;16599;47.078;15.536;2022-09-03T22:32:11;15.50;99.90
29687;DHT22;16599;47.078;15.536;2022-09-03T22:34:43;15.50;99.90
29687;DHT22;16599;47.078;15.536;2022-09-03T22:37:41;15.60;99.90
29687;DHT22;16599;47.078;15.536;2022-09-03T22:46:05;15.60;99.90
29687;DHT22;16599;47.078;15.536;2022-09-03T22:51:07;15.80;99.90
29687;DHT22;16599;47.078;15.536;2022-09-03T22:56:20;16.00;99.90
29687;DHT22;16599;47.078;15.536;2022-09-03T23:01:33;16.00;99.90
29687;DHT22;16599;47.078;15.536;2022-09-03T23:06:47;16.00;99.90
29687;DHT22;16599;47.078;15.536;2022-09-03T23:09:21;15.80;99.90
29687;DHT22;16599;47.078;15.536;2022-09-03T23:11:56;15.70;99.90
29687;DHT22;16599;47.078;15.536;2022-09-03T23:14:32;15.70;99.90
29687;DHT22;16599;47.078;15.536;2022-09-03T23:17:12;15.70;99.90
29687;DHT22;16599;47.078;15.536;2022-09-03T23:19:43;15.80;99.90
29687;DHT22;16599;47.078;15.536;2022-09-03T23:22:26;15.90;99.90
29687;DHT22;16599;47.078;15.536;2022-09-03T23:25:00;16.10;99.90
29687;DHT22;16599;47.078;15.536;2022-09-03T23:27:40;16.10;99.90
29687;DHT22;16599;47.078;15.536;2022-09-03T23:30:09;16.10;99.90
29687;DHT22;16599;47.078;15.536;2022-09-03T23:32:36;16.20;99.90
29687;DHT22;16599;47.078;15.536;2022-09-03T23:35:12;16.10;99.90
29687;DHT22;16599;47.078;15.536;2022-09-03T23:40:58;16.20;99.90
29687;DHT22;16599;47.078;15.536;2022-09-03T23:43:55;16.00;99.90
29687;DHT22;16599;47.078;15.536;2022-09-03T23:46:27;16.00;99.90
29687;DHT22;16599;47.078;15.536;2022-09-03T23:54:48;15.70;99.90
29687;DHT22;16599;47.078;15.536;2022-09-03T23:57:30;15.60;99.90
